sensor_id;sensor_type;location;lat;lon;timestamp;temperature;humidity
7331;DHT22;3706;49.198;7.064;2023-12-20T00:01:08;3.60;99.90
7331;DHT22;3706;49.198;7.064;2023-12-20T00:03:34;3.60;99.90
7331;DHT22;3706;49.198;7.064;2023-12-20T00:06:01;3.70;99.90
7331;DHT22;3706;49.198;7.064;2023-12-20T00:08:29;3.60;99.90
7331;DHT22;3706;49.198;7.064;2023-12-20T00:10:56;3.60;99.90
7331;DHT22;3706;49.198;7.064;2023-12-20T00:13:22;3.60;99.90
7331;DHT22;3706;49.198;7.064;2023-12-20T00:15:51;3.60;99.90
7331;DHT22;3706;49.198;7.064;2023-12-20T00:18:18;3.60;99.90
7331;DHT22;3706;49.198;7.064;2023-12-20T00:20:44;3.60;99.90
7331;DHT22;3706;49.198;7.064;2023-12-20T00:23:11;3.60;99.90
7331;DHT22;3706;49.198;7.064;2023-12-20T00:25:38;3.60;99.90
7331;DHT22;3706;49.198;7.064;2023-12-20T00:28:05;3.60;99.90
7331;DHT22;3706;49.198;7.064;2023-12-20T00:30:32;3.60;99.90
7331;DHT22;3706;49.198;7.064;2023-12-20T00:33:01;3.60;99.90
7331;DHT22;3706;49.198;7.064;2023-12-20T00:35:28;3.70;99.90
7331;DHT22;3706;49.198;7.064;2023-12-20T00:37:55;3.70;99.90
7331;DHT22;3706;49.198;7.064;2023-12-20T00:40:21;3.70;99.90
7331;DHT22;3706;49.198;7.064;2023-12-20T00:42:48;3.70;99.90
7331;DHT22;3706;49.198;7.064;2023-12-20T00:45:15;3.70;99.90
7331;DHT22;3706;49.198;7.064;2023-12-20T00:47:42;3.70;99.90
7331;DHT22;3706;49.198;7.064;2023-12-20T00:50:11;3.70;99.90
7331;DHT22;3706;49.198;7.064;2023-12-20T00:52:37;3.70;99.90
7331;DHT22;3706;49.198;7.064;2023-12-20T00:55:05;3.70;99.90
7331;DHT22;3706;49.198;7.064;2023-12-20T00:57:33;3.70;99.90
7331;DHT22;3706;49.198;7.064;2023-12-20T01:00:00;3.70;99.90
7331;DHT22;3706;49.198;7.064;2023-12-20T01:02:27;3.70;99.90
7331;DHT22;3706;49.198;7.064;2023-12-20T01:04:54;3.70;99.90
7331;DHT22;3706;49.198;7.064;2023-12-20T01:07:22;3.70;99.90
7331;DHT22;3706;49.198;7.064;2023-12-20T01:09:49;3.60;99.90
7331;DHT22;3706;49.198;7.064;2023-12-20T01:12:16;3.70;99.90
7331;DHT22;3706;49.198;7.064;2023-12-20T01:14:43;3.60;99.90
7331;DHT22;3706;49.198;7.064;2023-12-20T01:17:10;3.70;99.90
7331;DHT22;3706;49.198;7.064;2023-12-20T01:19:37;3.70;99.90
7331;DHT22;3706;49.198;7.064;2023-12-20T01:22:04;3.70;99.90
7331;DHT22;3706;49.198;7.064;2023-12-20T01:24:32;3.70;99.90
7331;DHT22;3706;49.198;7.064;2023-12-20T01:26:59;3.70;99.90
7331;DHT22;3706;49.198;7.064;2023-12-20T01:29:26;3.70;99.90
7331;DHT22;3706;49.198;7.064;2023-12-20T01:31:53;3.70;99.90
7331;DHT22;3706;49.198;7.064;2023-12-20T01:34:20;3.70;99.90
7331;DHT22;3706;49.198;7.064;2023-12-20T01:36:47;3.70;99.90
7331;DHT22;3706;49.198;7.064;2023-12-20T01:39:14;3.80;99.90
7331;DHT22;3706;49.198;7.064;2023-12-20T01:41:42;3.80;99.90
7331;DHT22;3706;49.198;7.064;2023-12-20T01:44:09;3.80;99.90
7331;DHT22;3706;49.198;7.064;2023-12-20T01:46:36;3.80;99.90
7331;DHT22;3706;49.198;7.064;2023-12-20T01:49:03;3.80;99.90
7331;DHT22;3706;49.198;7.064;2023-12-20T01:51:31;3.80;99.90
7331;DHT22;3706;49.198;7.064;2023-12-20T01:53:59;3.80;99.90
7331;DHT22;3706;49.198;7.064;2023-12-20T01:56:27;3.80;99.90
7331;DHT22;3706;49.198;7.064;2023-12-20T01:58:57;3.90;99.90
7331;DHT22;3706;49.198;7.064;2023-12-20T02:01:25;3.80;99.90
7331;DHT22;3706;49.198;7.064;2023-12-20T02:03:54;3.80;99.90
7331;DHT22;3706;49.198;7.064;2023-12-20T02:06:22;3.80;99.90
7331;DHT22;3706;49.198;7.064;2023-12-20T02:08:49;3.80;99.90
7331;DHT22;3706;49.198;7.064;2023-12-20T02:11:17;3.80;99.90
7331;DHT22;3706;49.198;7.064;2023-12-20T02:13:44;3.80;99.90
7331;DHT22;3706;49.198;7.064;2023-12-20T02:16:12;3.80;99.90
7331;DHT22;3706;49.198;7.064;2023-12-20T02:18:39;3.90;99.90
7331;DHT22;3706;49.198;7.064;2023-12-20T02:21:07;3.90;99.90
7331;DHT22;3706;49.198;7.064;2023-12-20T02:23:35;3.90;99.90
7331;DHT22;3706;49.198;7.064;2023-12-20T02:26:02;3.90;99.90
7331;DHT22;3706;49.198;7.064;2023-12-20T02:28:29;3.90;99.90
7331;DHT22;3706;49.198;7.064;2023-12-20T02:30:57;3.90;99.90
7331;DHT22;3706;49.198;7.064;2023-12-20T02:33:24;4.00;99.90
7331;DHT22;3706;49.198;7.064;2023-12-20T02:35:51;4.10;99.90
7331;DHT22;3706;49.198;7.064;2023-12-20T02:38:19;4.00;99.90
7331;DHT22;3706;49.198;7.064;2023-12-20T02:40:47;4.10;99.90
7331;DHT22;3706;49.198;7.064;2023-12-20T02:43:14;4.00;99.90
7331;DHT22;3706;49.198;7.064;2023-12-20T02:45:41;4.00;99.90
7331;DHT22;3706;49.198;7.064;2023-12-20T02:48:08;4.10;99.90
7331;DHT22;3706;49.198;7.064;2023-12-20T02:50:35;4.10;99.90
7331;DHT22;3706;49.198;7.064;2023-12-20T02:53:02;4.10;99.90
7331;DHT22;3706;49.198;7.064;2023-12-20T02:55:29;4.10;99.90
7331;DHT22;3706;49.198;7.064;2023-12-20T02:57:57;4.10;99.90
7331;DHT22;3706;49.198;7.064;2023-12-20T03:00:24;4.10;99.90
7331;DHT22;3706;49.198;7.064;2023-12-20T03:02:51;4.10;99.90
7331;DHT22;3706;49.198;7.064;2023-12-20T03:05:18;4.10;99.90
7331;DHT22;3706;49.198;7.064;2023-12-20T03:07:46;4.10;99.90
7331;DHT22;3706;49.198;7.064;2023-12-20T03:10:13;4.20;99.90
7331;DHT22;3706;49.198;7.064;2023-12-20T03:12:40;4.20;99.90
7331;DHT22;3706;49.198;7.064;2023-12-20T03:15:09;4.20;99.90
7331;DHT22;3706;49.198;7.064;2023-12-20T03:17:36;4.20;99.90
7331;DHT22;3706;49.198;7.064;2023-12-20T03:20:03;4.30;99.90
7331;DHT22;3706;49.198;7.064;2023-12-20T03:22:31;4.30;99.90
7331;DHT22;3706;49.198;7.064;2023-12-20T03:24:58;4.40;99.90
7331;DHT22;3706;49.198;7.064;2023-12-20T03:27:24;4.30;99.90
7331;DHT22;3706;49.198;7.064;2023-12-20T03:29:51;4.40;99.90
7331;DHT22;3706;49.198;7.064;2023-12-20T03:32:20;4.30;99.90
7331;DHT22;3706;49.198;7.064;2023-12-20T03:34:47;4.30;99.90
7331;DHT22;3706;49.198;7.064;2023-12-20T03:37:14;4.30;99.90
7331;DHT22;3706;49.198;7.064;2023-12-20T03:39:40;4.30;99.90
7331;DHT22;3706;49.198;7.064;2023-12-20T03:42:07;4.30;99.90
7331;DHT22;3706;49.198;7.064;2023-12-20T03:44:34;4.30;99.90
7331;DHT22;3706;49.198;7.064;2023-12-20T03:47:01;4.30;99.90
7331;DHT22;3706;49.198;7.064;2023-12-20T03:49:30;4.30;99.90
7331;DHT22;3706;49.198;7.064;2023-12-20T03:51:57;4.40;99.90
7331;DHT22;3706;49.198;7.064;2023-12-20T03:54:24;4.30;99.90
7331;DHT22;3706;49.198;7.064;2023-12-20T03:56:51;4.40;99.90
7331;DHT22;3706;49.198;7.064;2023-12-20T03:59:18;4.40;99.90
7331;DHT22;3706;49.198;7.064;2023-12-20T04:01:45;4.40;99.90
7331;DHT22;3706;49.198;7.064;2023-12-20T04:04:13;4.40;99.90
7331;DHT22;3706;49.198;7.064;2023-12-20T04:06:41;4.40;99.90
7331;DHT22;3706;49.198;7.064;2023-12-20T04:09:08;4.40;99.90
7331;DHT22;3706;49.198;7.064;2023-12-20T04:11:36;4.40;99.90
7331;DHT22;3706;49.198;7.064;2023-12-20T04:14:02;4.40;99.90
7331;DHT22;3706;49.198;7.064;2023-12-20T04:16:30;4.40;99.90
7331;DHT22;3706;49.198;7.064;2023-12-20T04:18:57;4.40;99.90
7331;DHT22;3706;49.198;7.064;2023-12-20T04:21:24;4.50;99.90
7331;DHT22;3706;49.198;7.064;2023-12-20T04:23:52;4.40;99.90
7331;DHT22;3706;49.198;7.064;2023-12-20T04:26:19;4.60;99.90
7331;DHT22;3706;49.198;7.064;2023-12-20T04:28:46;4.60;99.90
7331;DHT22;3706;49.198;7.064;2023-12-20T04:31:13;4.50;99.90
7331;DHT22;3706;49.198;7.064;2023-12-20T04:33:40;4.50;99.90
7331;DHT22;3706;49.198;7.064;2023-12-20T04:36:07;4.60;99.90
7331;DHT22;3706;49.198;7.064;2023-12-20T04:38:35;4.60;99.90
7331;DHT22;3706;49.198;7.064;2023-12-20T04:41:03;4.70;99.90
7331;DHT22;3706;49.198;7.064;2023-12-20T04:43:30;4.80;99.90
7331;DHT22;3706;49.198;7.064;2023-12-20T04:45:57;4.80;99.90
7331;DHT22;3706;49.198;7.064;2023-12-20T04:48:24;4.90;99.90
7331;DHT22;3706;49.198;7.064;2023-12-20T04:50:51;5.00;99.90
7331;DHT22;3706;49.198;7.064;2023-12-20T04:53:18;5.00;99.90
7331;DHT22;3706;49.198;7.064;2023-12-20T04:55:45;5.20;99.90
7331;DHT22;3706;49.198;7.064;2023-12-20T04:58:13;5.10;99.90
7331;DHT22;3706;49.198;7.064;2023-12-20T05:00:40;5.10;99.90
7331;DHT22;3706;49.198;7.064;2023-12-20T05:03:07;5.10;99.90
7331;DHT22;3706;49.198;7.064;2023-12-20T05:05:34;5.00;99.90
7331;DHT22;3706;49.198;7.064;2023-12-20T05:08:01;4.90;99.90
7331;DHT22;3706;49.198;7.064;2023-12-20T05:10:29;4.90;99.90
7331;DHT22;3706;49.198;7.064;2023-12-20T05:12:56;4.80;99.90
7331;DHT22;3706;49.198;7.064;2023-12-20T05:15:24;4.80;99.90
7331;DHT22;3706;49.198;7.064;2023-12-20T05:17:51;4.70;99.90
7331;DHT22;3706;49.198;7.064;2023-12-20T05:20:18;4.60;99.90
7331;DHT22;3706;49.198;7.064;2023-12-20T05:22:45;4.30;99.90
7331;DHT22;3706;49.198;7.064;2023-12-20T05:25:13;4.10;99.90
7331;DHT22;3706;49.198;7.064;2023-12-20T05:27:40;4.00;99.90
7331;DHT22;3706;49.198;7.064;2023-12-20T05:30:07;3.90;99.90
7331;DHT22;3706;49.198;7.064;2023-12-20T05:32:36;3.80;99.90
7331;DHT22;3706;49.198;7.064;2023-12-20T05:35:03;3.70;99.90
7331;DHT22;3706;49.198;7.064;2023-12-20T05:37:30;3.50;99.90
7331;DHT22;3706;49.198;7.064;2023-12-20T05:39:57;3.50;99.90
7331;DHT22;3706;49.198;7.064;2023-12-20T05:42:24;3.30;99.90
7331;DHT22;3706;49.198;7.064;2023-12-20T05:44:51;3.30;99.90
7331;DHT22;3706;49.198;7.064;2023-12-20T05:47:18;3.30;99.90
7331;DHT22;3706;49.198;7.064;2023-12-20T05:49:46;3.30;99.90
7331;DHT22;3706;49.198;7.064;2023-12-20T05:52:13;3.40;99.90
7331;DHT22;3706;49.198;7.064;2023-12-20T05:54:40;3.40;99.90
7331;DHT22;3706;49.198;7.064;2023-12-20T05:57:07;3.30;99.90
7331;DHT22;3706;49.198;7.064;2023-12-20T05:59:34;3.30;99.90
7331;DHT22;3706;49.198;7.064;2023-12-20T06:02:03;3.20;99.90
7331;DHT22;3706;49.198;7.064;2023-12-20T06:04:30;3.20;99.90
7331;DHT22;3706;49.198;7.064;2023-12-20T06:06:59;3.20;99.90
7331;DHT22;3706;49.198;7.064;2023-12-20T06:09:27;3.10;99.90
7331;DHT22;3706;49.198;7.064;2023-12-20T06:11:54;3.10;99.90
7331;DHT22;3706;49.198;7.064;2023-12-20T06:14:21;3.00;99.90
7331;DHT22;3706;49.198;7.064;2023-12-20T06:16:48;2.90;99.90
7331;DHT22;3706;49.198;7.064;2023-12-20T06:19:15;2.80;99.90
7331;DHT22;3706;49.198;7.064;2023-12-20T06:21:42;2.70;99.90
7331;DHT22;3706;49.198;7.064;2023-12-20T06:24:11;2.60;99.90
7331;DHT22;3706;49.198;7.064;2023-12-20T06:26:38;2.60;99.90
7331;DHT22;3706;49.198;7.064;2023-12-20T06:29:04;2.50;99.90
7331;DHT22;3706;49.198;7.064;2023-12-20T06:31:31;2.50;99.90
7331;DHT22;3706;49.198;7.064;2023-12-20T06:33:58;2.50;99.90
7331;DHT22;3706;49.198;7.064;2023-12-20T06:36:25;2.40;99.90
7331;DHT22;3706;49.198;7.064;2023-12-20T06:38:53;2.40;99.90
7331;DHT22;3706;49.198;7.064;2023-12-20T06:41:21;2.30;99.90
7331;DHT22;3706;49.198;7.064;2023-12-20T06:43:50;2.20;99.90
7331;DHT22;3706;49.198;7.064;2023-12-20T06:46:17;2.20;99.90
7331;DHT22;3706;49.198;7.064;2023-12-20T06:48:44;2.10;99.90
7331;DHT22;3706;49.198;7.064;2023-12-20T06:51:14;2.10;99.90
7331;DHT22;3706;49.198;7.064;2023-12-20T06:53:41;2.00;99.90
7331;DHT22;3706;49.198;7.064;2023-12-20T06:56:09;2.10;99.90
7331;DHT22;3706;49.198;7.064;2023-12-20T06:58:38;2.10;99.90
7331;DHT22;3706;49.198;7.064;2023-12-20T07:01:05;2.20;99.90
7331;DHT22;3706;49.198;7.064;2023-12-20T07:03:32;2.10;99.90
7331;DHT22;3706;49.198;7.064;2023-12-20T07:05:59;2.30;99.90
7331;DHT22;3706;49.198;7.064;2023-12-20T07:08:26;2.20;99.90
7331;DHT22;3706;49.198;7.064;2023-12-20T07:10:53;2.20;99.90
7331;DHT22;3706;49.198;7.064;2023-12-20T07:13:20;2.30;99.90
7331;DHT22;3706;49.198;7.064;2023-12-20T07:15:49;2.40;99.90
7331;DHT22;3706;49.198;7.064;2023-12-20T07:18:16;2.30;99.90
7331;DHT22;3706;49.198;7.064;2023-12-20T07:20:43;2.40;99.90
7331;DHT22;3706;49.198;7.064;2023-12-20T07:23:10;2.50;99.90
7331;DHT22;3706;49.198;7.064;2023-12-20T07:25:37;2.60;99.90
7331;DHT22;3706;49.198;7.064;2023-12-20T07:28:04;2.70;99.90
7331;DHT22;3706;49.198;7.064;2023-12-20T07:30:31;2.80;99.90
7331;DHT22;3706;49.198;7.064;2023-12-20T07:33:00;2.90;99.90
7331;DHT22;3706;49.198;7.064;2023-12-20T07:35:28;2.90;99.90
7331;DHT22;3706;49.198;7.064;2023-12-20T07:37:55;3.00;99.90
7331;DHT22;3706;49.198;7.064;2023-12-20T07:40:22;3.00;99.90
7331;DHT22;3706;49.198;7.064;2023-12-20T07:42:49;3.00;99.90
7331;DHT22;3706;49.198;7.064;2023-12-20T07:45:16;3.00;99.90
7331;DHT22;3706;49.198;7.064;2023-12-20T07:47:43;3.10;99.90
7331;DHT22;3706;49.198;7.064;2023-12-20T07:50:12;3.10;99.90
7331;DHT22;3706;49.198;7.064;2023-12-20T07:52:39;3.20;99.90
7331;DHT22;3706;49.198;7.064;2023-12-20T07:55:06;3.10;99.90
7331;DHT22;3706;49.198;7.064;2023-12-20T07:57:33;3.20;99.90
7331;DHT22;3706;49.198;7.064;2023-12-20T08:00:00;3.20;99.90
7331;DHT22;3706;49.198;7.064;2023-12-20T08:02:29;3.30;99.90
7331;DHT22;3706;49.198;7.064;2023-12-20T08:04:56;3.40;99.90
7331;DHT22;3706;49.198;7.064;2023-12-20T08:07:24;3.40;99.90
7331;DHT22;3706;49.198;7.064;2023-12-20T08:09:51;3.50;99.90
7331;DHT22;3706;49.198;7.064;2023-12-20T08:12:20;3.60;99.90
7331;DHT22;3706;49.198;7.064;2023-12-20T08:14:47;3.70;99.90
7331;DHT22;3706;49.198;7.064;2023-12-20T08:17:14;3.70;99.90
7331;DHT22;3706;49.198;7.064;2023-12-20T08:19:41;3.70;99.90
7331;DHT22;3706;49.198;7.064;2023-12-20T08:22:08;3.80;99.90
7331;DHT22;3706;49.198;7.064;2023-12-20T08:24:37;3.80;99.90
7331;DHT22;3706;49.198;7.064;2023-12-20T08:27:04;3.90;99.90
7331;DHT22;3706;49.198;7.064;2023-12-20T08:29:31;3.90;99.90
7331;DHT22;3706;49.198;7.064;2023-12-20T08:31:59;4.00;99.90
7331;DHT22;3706;49.198;7.064;2023-12-20T08:34:26;4.00;99.90
7331;DHT22;3706;49.198;7.064;2023-12-20T08:36:53;4.00;99.90
7331;DHT22;3706;49.198;7.064;2023-12-20T08:39:20;4.00;99.90
7331;DHT22;3706;49.198;7.064;2023-12-20T08:41:48;4.10;99.90
7331;DHT22;3706;49.198;7.064;2023-12-20T08:44:15;4.20;99.90
7331;DHT22;3706;49.198;7.064;2023-12-20T08:46:43;4.20;99.90
7331;DHT22;3706;49.198;7.064;2023-12-20T08:49:10;4.30;99.90
7331;DHT22;3706;49.198;7.064;2023-12-20T08:51:37;4.40;99.90
7331;DHT22;3706;49.198;7.064;2023-12-20T08:54:06;4.40;99.90
7331;DHT22;3706;49.198;7.064;2023-12-20T08:56:34;4.60;99.90
7331;DHT22;3706;49.198;7.064;2023-12-20T08:59:02;4.60;99.90
7331;DHT22;3706;49.198;7.064;2023-12-20T09:01:29;4.70;99.90
7331;DHT22;3706;49.198;7.064;2023-12-20T09:03:56;4.70;99.90
7331;DHT22;3706;49.198;7.064;2023-12-20T09:06:23;4.60;99.90
7331;DHT22;3706;49.198;7.064;2023-12-20T09:08:50;4.80;99.90
7331;DHT22;3706;49.198;7.064;2023-12-20T09:11:17;5.00;99.90
7331;DHT22;3706;49.198;7.064;2023-12-20T09:13:44;4.80;99.90
7331;DHT22;3706;49.198;7.064;2023-12-20T09:16:13;5.00;99.90
7331;DHT22;3706;49.198;7.064;2023-12-20T09:18:41;5.00;99.90
7331;DHT22;3706;49.198;7.064;2023-12-20T09:21:08;5.00;99.90
7331;DHT22;3706;49.198;7.064;2023-12-20T09:23:35;5.10;99.90
7331;DHT22;3706;49.198;7.064;2023-12-20T09:26:03;5.10;99.90
7331;DHT22;3706;49.198;7.064;2023-12-20T09:28:30;5.30;99.90
7331;DHT22;3706;49.198;7.064;2023-12-20T09:31:03;5.30;99.90
7331;DHT22;3706;49.198;7.064;2023-12-20T09:33:31;5.40;99.90
7331;DHT22;3706;49.198;7.064;2023-12-20T09:35:59;5.60;99.90
7331;DHT22;3706;49.198;7.064;2023-12-20T09:38:26;5.70;99.90
7331;DHT22;3706;49.198;7.064;2023-12-20T09:40:53;5.80;99.90
7331;DHT22;3706;49.198;7.064;2023-12-20T09:43:24;5.80;99.90
7331;DHT22;3706;49.198;7.064;2023-12-20T09:45:53;5.80;99.90
7331;DHT22;3706;49.198;7.064;2023-12-20T09:48:20;5.80;99.90
7331;DHT22;3706;49.198;7.064;2023-12-20T09:50:48;5.70;99.90
7331;DHT22;3706;49.198;7.064;2023-12-20T09:53:18;5.70;99.90
7331;DHT22;3706;49.198;7.064;2023-12-20T09:55:46;5.70;99.90
7331;DHT22;3706;49.198;7.064;2023-12-20T09:58:13;5.60;99.90
7331;DHT22;3706;49.198;7.064;2023-12-20T10:00:40;5.60;99.90
7331;DHT22;3706;49.198;7.064;2023-12-20T10:03:08;5.60;99.90
7331;DHT22;3706;49.198;7.064;2023-12-20T10:05:36;5.50;99.90
7331;DHT22;3706;49.198;7.064;2023-12-20T10:08:06;5.40;99.90
7331;DHT22;3706;49.198;7.064;2023-12-20T10:10:33;5.50;99.90
7331;DHT22;3706;49.198;7.064;2023-12-20T10:13:04;5.50;99.90
7331;DHT22;3706;49.198;7.064;2023-12-20T10:15:32;5.50;99.90
7331;DHT22;3706;49.198;7.064;2023-12-20T10:17:59;5.50;99.90
7331;DHT22;3706;49.198;7.064;2023-12-20T10:20:26;5.60;99.90
7331;DHT22;3706;49.198;7.064;2023-12-20T10:22:54;5.50;99.90
7331;DHT22;3706;49.198;7.064;2023-12-20T10:25:23;5.70;99.90
7331;DHT22;3706;49.198;7.064;2023-12-20T10:30:34;5.80;99.90
7331;DHT22;3706;49.198;7.064;2023-12-20T10:33:02;5.70;99.90
7331;DHT22;3706;49.198;7.064;2023-12-20T10:35:29;5.80;99.90
7331;DHT22;3706;49.198;7.064;2023-12-20T10:37:56;5.80;99.90
7331;DHT22;3706;49.198;7.064;2023-12-20T10:40:25;5.90;99.90
7331;DHT22;3706;49.198;7.064;2023-12-20T10:42:56;5.90;99.90
7331;DHT22;3706;49.198;7.064;2023-12-20T10:45:24;6.00;99.90
7331;DHT22;3706;49.198;7.064;2023-12-20T10:47:51;6.00;99.90
7331;DHT22;3706;49.198;7.064;2023-12-20T10:50:19;5.90;99.90
7331;DHT22;3706;49.198;7.064;2023-12-20T10:52:47;6.00;99.90
7331;DHT22;3706;49.198;7.064;2023-12-20T10:55:14;6.00;99.90
7331;DHT22;3706;49.198;7.064;2023-12-20T10:57:44;6.10;99.90
7331;DHT22;3706;49.198;7.064;2023-12-20T11:00:17;6.20;99.90
7331;DHT22;3706;49.198;7.064;2023-12-20T11:02:45;6.50;99.90
7331;DHT22;3706;49.198;7.064;2023-12-20T11:05:22;6.70;99.90
7331;DHT22;3706;49.198;7.064;2023-12-20T11:07:56;7.00;99.90
7331;DHT22;3706;49.198;7.064;2023-12-20T11:10:29;7.20;99.90
7331;DHT22;3706;49.198;7.064;2023-12-20T11:13:04;7.40;99.90
7331;DHT22;3706;49.198;7.064;2023-12-20T11:15:35;7.50;99.90
7331;DHT22;3706;49.198;7.064;2023-12-20T11:18:04;7.60;99.90
7331;DHT22;3706;49.198;7.064;2023-12-20T11:20:36;7.60;99.90
7331;DHT22;3706;49.198;7.064;2023-12-20T11:23:04;7.60;99.90
7331;DHT22;3706;49.198;7.064;2023-12-20T11:25:46;7.50;99.90
7331;DHT22;3706;49.198;7.064;2023-12-20T11:28:15;7.40;99.90
7331;DHT22;3706;49.198;7.064;2023-12-20T11:30:47;7.30;99.90
7331;DHT22;3706;49.198;7.064;2023-12-20T11:33:15;7.20;99.90
7331;DHT22;3706;49.198;7.064;2023-12-20T11:35:42;7.10;99.90
7331;DHT22;3706;49.198;7.064;2023-12-20T11:38:10;7.10;99.90
7331;DHT22;3706;49.198;7.064;2023-12-20T11:40:37;7.00;99.90
7331;DHT22;3706;49.198;7.064;2023-12-20T11:43:04;6.90;99.90
7331;DHT22;3706;49.198;7.064;2023-12-20T11:45:34;6.70;99.90
7331;DHT22;3706;49.198;7.064;2023-12-20T11:48:02;6.60;99.90
7331;DHT22;3706;49.198;7.064;2023-12-20T11:50:29;6.50;99.90
7331;DHT22;3706;49.198;7.064;2023-12-20T11:52:56;6.50;99.90
7331;DHT22;3706;49.198;7.064;2023-12-20T11:55:23;6.50;99.90
7331;DHT22;3706;49.198;7.064;2023-12-20T11:57:51;6.40;99.90
7331;DHT22;3706;49.198;7.064;2023-12-20T12:00:19;6.40;99.90
7331;DHT22;3706;49.198;7.064;2023-12-20T12:02:57;6.40;99.90
7331;DHT22;3706;49.198;7.064;2023-12-20T12:05:24;6.30;99.90
7331;DHT22;3706;49.198;7.064;2023-12-20T12:07:51;6.30;99.90
7331;DHT22;3706;49.198;7.064;2023-12-20T12:10:18;6.20;99.90
7331;DHT22;3706;49.198;7.064;2023-12-20T12:12:45;6.30;99.90
7331;DHT22;3706;49.198;7.064;2023-12-20T12:15:12;6.30;99.90
7331;DHT22;3706;49.198;7.064;2023-12-20T12:17:39;6.30;99.90
7331;DHT22;3706;49.198;7.064;2023-12-20T12:20:08;6.30;99.90
7331;DHT22;3706;49.198;7.064;2023-12-20T12:22:36;6.40;99.90
7331;DHT22;3706;49.198;7.064;2023-12-20T12:25:10;6.30;99.90
7331;DHT22;3706;49.198;7.064;2023-12-20T12:27:39;6.30;99.90
7331;DHT22;3706;49.198;7.064;2023-12-20T12:30:07;6.30;99.90
7331;DHT22;3706;49.198;7.064;2023-12-20T12:32:35;6.20;99.90
7331;DHT22;3706;49.198;7.064;2023-12-20T12:35:03;6.20;99.90
7331;DHT22;3706;49.198;7.064;2023-12-20T12:37:34;6.20;99.90
7331;DHT22;3706;49.198;7.064;2023-12-20T12:40:04;6.10;99.90
7331;DHT22;3706;49.198;7.064;2023-12-20T12:42:31;6.10;99.90
7331;DHT22;3706;49.198;7.064;2023-12-20T12:44:58;6.10;99.90
7331;DHT22;3706;49.198;7.064;2023-12-20T12:47:25;6.20;99.90
7331;DHT22;3706;49.198;7.064;2023-12-20T12:49:52;6.10;99.90
7331;DHT22;3706;49.198;7.064;2023-12-20T12:52:19;6.10;99.90
7331;DHT22;3706;49.198;7.064;2023-12-20T12:54:48;6.00;99.90
7331;DHT22;3706;49.198;7.064;2023-12-20T12:57:16;6.00;99.90
7331;DHT22;3706;49.198;7.064;2023-12-20T12:59:43;5.90;99.90
7331;DHT22;3706;49.198;7.064;2023-12-20T13:02:11;6.00;99.90
7331;DHT22;3706;49.198;7.064;2023-12-20T13:04:39;6.00;99.90
7331;DHT22;3706;49.198;7.064;2023-12-20T13:07:06;6.00;99.90
7331;DHT22;3706;49.198;7.064;2023-12-20T13:09:36;6.00;99.90
7331;DHT22;3706;49.198;7.064;2023-12-20T13:12:05;6.10;99.90
7331;DHT22;3706;49.198;7.064;2023-12-20T13:14:33;6.10;99.90
7331;DHT22;3706;49.198;7.064;2023-12-20T13:17:02;6.10;99.90
7331;DHT22;3706;49.198;7.064;2023-12-20T13:19:30;6.10;99.90
7331;DHT22;3706;49.198;7.064;2023-12-20T13:21:57;6.00;99.90
7331;DHT22;3706;49.198;7.064;2023-12-20T13:24:24;6.20;99.90
7331;DHT22;3706;49.198;7.064;2023-12-20T13:26:51;6.20;99.90
7331;DHT22;3706;49.198;7.064;2023-12-20T13:29:20;6.30;99.90
7331;DHT22;3706;49.198;7.064;2023-12-20T13:31:47;6.20;99.90
7331;DHT22;3706;49.198;7.064;2023-12-20T13:34:14;6.30;99.90
7331;DHT22;3706;49.198;7.064;2023-12-20T13:36:43;6.30;99.90
7331;DHT22;3706;49.198;7.064;2023-12-20T13:39:11;6.30;99.90
7331;DHT22;3706;49.198;7.064;2023-12-20T13:41:38;6.30;99.90
7331;DHT22;3706;49.198;7.064;2023-12-20T13:44:05;6.30;99.90
7331;DHT22;3706;49.198;7.064;2023-12-20T13:46:34;6.20;99.90
7331;DHT22;3706;49.198;7.064;2023-12-20T13:49:01;6.30;99.90
7331;DHT22;3706;49.198;7.064;2023-12-20T13:51:28;6.30;99.90
7331;DHT22;3706;49.198;7.064;2023-12-20T13:53:55;6.30;99.90
7331;DHT22;3706;49.198;7.064;2023-12-20T13:56:23;6.30;99.90
7331;DHT22;3706;49.198;7.064;2023-12-20T13:58:50;6.30;99.90
7331;DHT22;3706;49.198;7.064;2023-12-20T14:01:17;6.30;99.90
7331;DHT22;3706;49.198;7.064;2023-12-20T14:03:45;6.40;99.90
7331;DHT22;3706;49.198;7.064;2023-12-20T14:06:12;6.40;99.90
7331;DHT22;3706;49.198;7.064;2023-12-20T14:08:41;6.40;99.90
7331;DHT22;3706;49.198;7.064;2023-12-20T14:11:08;6.40;99.90
7331;DHT22;3706;49.198;7.064;2023-12-20T14:13:35;6.40;99.90
7331;DHT22;3706;49.198;7.064;2023-12-20T14:16:02;6.40;99.90
7331;DHT22;3706;49.198;7.064;2023-12-20T14:18:29;6.30;99.90
7331;DHT22;3706;49.198;7.064;2023-12-20T14:20:58;6.30;99.90
7331;DHT22;3706;49.198;7.064;2023-12-20T14:23:25;6.30;99.90
7331;DHT22;3706;49.198;7.064;2023-12-20T14:25:52;6.30;99.90
7331;DHT22;3706;49.198;7.064;2023-12-20T14:28:21;6.30;99.90
7331;DHT22;3706;49.198;7.064;2023-12-20T14:30:48;6.30;99.90
7331;DHT22;3706;49.198;7.064;2023-12-20T14:33:15;6.40;99.90
7331;DHT22;3706;49.198;7.064;2023-12-20T14:35:42;6.20;99.90
7331;DHT22;3706;49.198;7.064;2023-12-20T14:38:11;6.20;99.90
7331;DHT22;3706;49.198;7.064;2023-12-20T14:40:40;6.20;99.90
7331;DHT22;3706;49.198;7.064;2023-12-20T14:43:07;6.20;99.90
7331;DHT22;3706;49.198;7.064;2023-12-20T14:45:34;6.10;99.90
7331;DHT22;3706;49.198;7.064;2023-12-20T14:48:01;6.10;99.90
7331;DHT22;3706;49.198;7.064;2023-12-20T14:50:28;6.00;99.90
7331;DHT22;3706;49.198;7.064;2023-12-20T14:52:55;6.00;99.90
7331;DHT22;3706;49.198;7.064;2023-12-20T14:55:23;5.90;99.90
7331;DHT22;3706;49.198;7.064;2023-12-20T14:57:53;5.90;99.90
7331;DHT22;3706;49.198;7.064;2023-12-20T15:00:20;5.80;99.90
7331;DHT22;3706;49.198;7.064;2023-12-20T15:02:47;5.80;99.90
7331;DHT22;3706;49.198;7.064;2023-12-20T15:05:13;5.80;99.90
7331;DHT22;3706;49.198;7.064;2023-12-20T15:07:41;5.80;99.90
7331;DHT22;3706;49.198;7.064;2023-12-20T15:10:08;5.70;99.90
7331;DHT22;3706;49.198;7.064;2023-12-20T15:12:37;5.70;99.90
7331;DHT22;3706;49.198;7.064;2023-12-20T15:15:05;5.80;99.90
7331;DHT22;3706;49.198;7.064;2023-12-20T15:17:32;5.70;99.90
7331;DHT22;3706;49.198;7.064;2023-12-20T15:19:59;5.70;99.90
7331;DHT22;3706;49.198;7.064;2023-12-20T15:22:26;5.70;99.90
7331;DHT22;3706;49.198;7.064;2023-12-20T15:24:53;5.70;99.90
7331;DHT22;3706;49.198;7.064;2023-12-20T15:27:20;5.70;99.90
7331;DHT22;3706;49.198;7.064;2023-12-20T15:29:49;5.80;99.90
7331;DHT22;3706;49.198;7.064;2023-12-20T15:32:17;5.60;99.90
7331;DHT22;3706;49.198;7.064;2023-12-20T15:34:45;5.60;99.90
7331;DHT22;3706;49.198;7.064;2023-12-20T15:37:12;5.50;99.90
7331;DHT22;3706;49.198;7.064;2023-12-20T15:39:41;5.40;99.90
7331;DHT22;3706;49.198;7.064;2023-12-20T15:42:08;5.50;99.90
7331;DHT22;3706;49.198;7.064;2023-12-20T15:44:35;5.50;99.90
7331;DHT22;3706;49.198;7.064;2023-12-20T15:47:04;5.40;99.90
7331;DHT22;3706;49.198;7.064;2023-12-20T15:49:30;5.40;99.90
7331;DHT22;3706;49.198;7.064;2023-12-20T15:51:57;5.50;99.90
7331;DHT22;3706;49.198;7.064;2023-12-20T15:54:24;5.30;99.90
7331;DHT22;3706;49.198;7.064;2023-12-20T15:56:51;5.40;99.90
7331;DHT22;3706;49.198;7.064;2023-12-20T15:59:18;5.50;99.90
7331;DHT22;3706;49.198;7.064;2023-12-20T16:01:45;5.40;99.90
7331;DHT22;3706;49.198;7.064;2023-12-20T16:04:14;5.40;99.90
7331;DHT22;3706;49.198;7.064;2023-12-20T16:06:41;5.40;99.90
7331;DHT22;3706;49.198;7.064;2023-12-20T16:09:09;5.40;99.90
7331;DHT22;3706;49.198;7.064;2023-12-20T16:11:38;5.40;99.90
7331;DHT22;3706;49.198;7.064;2023-12-20T16:14:06;5.40;99.90
7331;DHT22;3706;49.198;7.064;2023-12-20T16:16:34;5.50;99.90
7331;DHT22;3706;49.198;7.064;2023-12-20T16:19:02;5.40;99.90
7331;DHT22;3706;49.198;7.064;2023-12-20T16:21:31;5.60;99.90